Time;durP1;ratioP1;P1;durP2;ratioP2;P2;SDS_P1;SDS_P2;PMS_P1;PMS_P2;Temp;Humidity;BMP_temperature;BMP_pressure;BME280_temperature;BME280_humidity;BME280_pressure;Samples;Min_cycle;Max_cycle;Signal;HPM_P1;HPM_P2
2021/08/28 00:00:51;;;;;;;35.17;28.20;;;;;;;9.17;100.00;98794.59;2088876;28;20211;-74
2021/08/28 00:01:52;;;;;;;41.10;31.83;;;;;;;9.14;100.00;98792.53;2089094;28;20313;-74
2021/08/28 00:02:53;;;;;;;46.85;32.70;;;;;;;9.12;100.00;98797.34;2089638;28;20234;-74
2021/08/28 00:03:54;;;;;;;49.67;32.27;;;;;;;9.11;100.00;98791.22;2089663;28;20226;-74
2021/08/28 00:04:55;;;;;;;56.60;34.00;;;;;;;9.11;100.00;98798.41;2089590;28;20643;-74
2021/08/28 00:05:57;;;;;;;55.33;34.10;;;;;;;9.09;100.00;98796.06;2089637;28;20253;-74
2021/08/28 00:06:58;;;;;;;83.25;33.15;;;;;;;9.09;100.00;98798.72;2088768;28;20472;-75
2021/08/28 00:07:59;;;;;;;104.23;33.47;;;;;;;9.13;100.00;98801.59;2088891;28;20222;-75
2021/08/28 00:09:00;;;;;;;130.68;34.22;;;;;;;9.12;100.00;98795.50;2089076;28;20222;-74
2021/08/28 00:10:01;;;;;;;146.03;32.57;;;;;;;9.15;100.00;98799.44;2088791;28;20276;-74
2021/08/28 00:11:02;;;;;;;169.25;35.10;;;;;;;9.15;100.00;98792.22;2089535;28;20306;-74
2021/08/28 00:12:04;;;;;;;71.00;33.23;;;;;;;9.15;100.00;98796.78;2089551;28;20230;-74
2021/08/28 00:13:06;;;;;;;74.55;32.33;;;;;;;9.12;100.00;98792.81;2089608;28;20819;-75
2021/08/28 00:14:08;;;;;;;61.22;33.10;;;;;;;9.12;100.00;98800.81;2089113;28;20305;-74
2021/08/28 00:15:10;;;;;;;50.00;32.60;;;;;;;9.10;100.00;98799.50;2089320;28;20230;-75
2021/08/28 00:16:11;;;;;;;63.40;32.17;;;;;;;9.07;100.00;98799.00;2089485;28;20237;-74
2021/08/28 00:17:12;;;;;;;85.65;32.83;;;;;;;9.06;100.00;98796.66;2089459;28;20234;-75
2021/08/28 00:18:14;;;;;;;51.30;31.93;;;;;;;9.02;100.00;98798.28;2089053;28;20222;-74
2021/08/28 00:19:14;;;;;;;54.45;31.70;;;;;;;8.98;100.00;98795.44;2088747;28;20280;-74
2021/08/28 00:20:16;;;;;;;42.10;30.60;;;;;;;8.95;100.00;98798.69;2089469;28;20226;-74
2021/08/28 00:21:17;;;;;;;58.97;32.03;;;;;;;8.93;100.00;98794.72;2088545;28;20227;-74
2021/08/28 00:22:18;;;;;;;40.13;30.73;;;;;;;8.93;100.00;98805.38;2080329;28;20219;-74
2021/08/28 00:23:19;;;;;;;45.03;31.20;;;;;;;8.89;100.00;98799.84;2080437;28;20314;-75
2021/08/28 00:24:20;;;;;;;72.17;32.30;;;;;;;8.89;100.00;98801.72;2088687;28;20231;-75
2021/08/28 00:25:21;;;;;;;58.60;31.42;;;;;;;8.89;100.00;98802.50;2089388;28;20245;-74
2021/08/28 00:26:23;;;;;;;57.33;31.50;;;;;;;8.89;100.00;98810.50;2088220;28;20219;-74
2021/08/28 00:27:23;;;;;;;61.40;32.55;;;;;;;8.88;100.00;98810.78;2088702;28;20234;-74
2021/08/28 00:28:26;;;;;;;51.27;31.70;;;;;;;8.85;100.00;98806.81;2089290;28;20306;-74
2021/08/28 00:29:27;;;;;;;48.20;31.23;;;;;;;8.87;100.00;98810.00;2089342;28;20287;-74
2021/08/28 00:30:28;;;;;;;55.30;31.83;;;;;;;8.88;100.00;98814.25;2089467;28;20272;-75
2021/08/28 00:31:29;;;;;;;46.83;31.58;;;;;;;8.87;100.00;98811.88;2089416;28;20704;-74
2021/08/28 00:32:31;;;;;;;56.13;32.87;;;;;;;8.86;100.00;98815.59;2089469;28;20585;-75
2021/08/28 00:33:31;;;;;;;52.05;32.22;;;;;;;8.87;100.00;98817.97;2088603;28;20218;-74
2021/08/28 00:34:33;;;;;;;48.00;32.93;;;;;;;8.91;100.00;98810.97;2088647;28;20235;-74
2021/08/28 00:35:33;;;;;;;58.50;34.30;;;;;;;8.94;100.00;98815.72;2089344;28;20226;-74
2021/08/28 00:36:35;;;;;;;61.20;34.13;;;;;;;8.95;100.00;98808.56;2089342;28;20217;-74
2021/08/28 00:37:36;;;;;;;51.50;32.80;;;;;;;8.94;100.00;98810.38;2089337;28;20310;-74
2021/08/28 00:38:37;;;;;;;52.07;34.23;;;;;;;8.92;100.00;98809.91;2087728;28;20231;-75
2021/08/28 00:39:38;;;;;;;57.67;33.33;;;;;;;8.93;100.00;98808.81;2088671;28;20313;-74
2021/08/28 00:40:40;;;;;;;54.77;33.30;;;;;;;8.93;100.00;98816.00;2089315;28;20226;-74
2021/08/28 00:41:41;;;;;;;47.45;32.38;;;;;;;8.90;100.00;98816.59;2089151;28;20223;-74
2021/08/28 00:42:47;;;;;;;55.07;34.43;;;;;;;8.90;100.00;98812.06;2089255;28;20804;-74
2021/08/28 00:43:49;;;;;;;57.58;34.00;;;;;;;8.88;100.00;98813.44;2089198;28;20219;-74
2021/08/28 00:44:51;;;;;;;59.83;34.53;;;;;;;8.85;100.00;98817.47;2088706;28;20222;-75
2021/08/28 00:45:53;;;;;;;51.55;34.20;;;;;;;8.83;100.00;98822.28;2079932;28;20227;-74
2021/08/28 00:46:55;;;;;;;54.65;33.10;;;;;;;8.82;100.00;98815.38;2088591;28;20316;-74
2021/08/28 00:47:58;;;;;;;54.13;34.33;;;;;;;8.80;100.00;98814.91;2088631;28;20242;-74
2021/08/28 00:49:00;;;;;;;59.83;35.35;;;;;;;8.78;100.00;98817.84;2080681;28;20215;-75
2021/08/28 00:50:01;;;;;;;62.70;35.60;;;;;;;8.80;100.00;98817.56;2080240;28;20235;-74
2021/08/28 00:51:03;;;;;;;63.63;36.20;;;;;;;8.77;100.00;98818.13;2080168;28;20219;-74
2021/08/28 00:52:04;;;;;;;56.05;34.97;;;;;;;8.76;100.00;98817.31;2088516;28;20297;-74
2021/08/28 00:53:07;;;;;;;60.78;36.38;;;;;;;8.75;100.00;98823.72;2088541;28;20346;-74
2021/08/28 00:54:07;;;;;;;54.72;33.78;;;;;;;8.75;100.00;98817.63;2087764;28;20609;-75
2021/08/28 00:55:09;;;;;;;52.63;34.03;;;;;;;8.75;100.00;98825.59;2080256;28;20228;-74
2021/08/28 00:56:11;;;;;;;56.10;34.65;;;;;;;8.76;100.00;98816.53;2088265;28;20986;-74
2021/08/28 00:57:13;;;;;;;59.00;35.00;;;;;;;8.79;100.00;98823.97;2088302;28;20605;-74
2021/08/28 00:58:17;;;;;;;55.35;34.17;;;;;;;8.75;100.00;98818.41;2080482;28;20294;-74
2021/08/28 00:59:19;;;;;;;52.47;32.97;;;;;;;8.75;100.00;98820.28;2088464;28;20219;-74
2021/08/28 01:00:21;;;;;;;51.70;34.35;;;;;;;8.74;100.00;98816.84;2080117;28;20227;-74
2021/08/28 01:01:23;;;;;;;51.22;34.42;;;;;;;8.73;100.00;98817.91;2079875;28;20297;-74
2021/08/28 01:02:26;;;;;;;50.45;33.33;;;;;;;8.75;100.00;98812.31;2088341;28;20227;-74
2021/08/28 01:03:28;;;;;;;55.08;34.40;;;;;;;8.74;100.00;98818.69;2088307;28;20288;-74
2021/08/28 01:04:36;;;;;;;48.22;33.17;;;;;;;8.73;100.00;98819.78;2088305;28;20280;-74
2021/08/28 01:05:51;;;;;;;49.85;33.08;;;;;;;8.72;100.00;98820.88;2087863;28;20302;-74
2021/08/28 01:06:59;;;;;;;44.17;32.05;;;;;;;8.71;100.00;98824.59;2080836;28;20618;-74
2021/08/28 01:08:21;;;;;;;53.88;32.13;;;;;;;8.69;100.00;98821.47;2088362;28;20305;-74
2021/08/28 01:09:49;;;;;;;47.75;32.30;;;;;;;8.68;100.00;98828.63;2088249;28;20226;-74
2021/08/28 01:11:24;;;;;;;53.13;32.28;;;;;;;8.68;100.00;98817.19;2088413;28;20222;-74
2021/08/28 01:12:35;;;;;;;42.22;31.40;;;;;;;8.67;100.00;98820.94;2088113;28;20218;-75
2021/08/28 01:13:42;;;;;;;40.38;30.25;;;;;;;8.65;100.00;98826.53;2080724;28;20223;-75
2021/08/28 01:14:47;;;;;;;42.78;31.80;;;;;;;8.62;100.00;98818.38;2080202;28;20230;-74
2021/08/28 01:15:52;;;;;;;40.80;29.83;;;;;;;8.60;100.00;98828.47;2080908;28;20732;-74
2021/08/28 01:16:59;;;;;;;41.22;30.83;;;;;;;8.59;100.00;98824.25;2080064;28;20228;-75
2021/08/28 01:18:01;;;;;;;41.65;29.98;;;;;;;8.58;100.00;98820.78;2088052;28;20333;-74
2021/08/28 01:19:02;;;;;;;43.78;30.63;;;;;;;8.60;100.00;98820.50;2080022;28;20365;-74
2021/08/28 01:20:09;;;;;;;39.13;29.13;;;;;;;8.57;100.00;98821.88;2079902;28;20220;-74
2021/08/28 01:21:36;;;;;;;43.75;29.60;;;;;;;8.58;100.00;98814.69;2071018;28;20223;-75
2021/08/28 01:22:56;;;;;;;37.10;29.05;;;;;;;8.56;100.00;98822.16;2088456;28;20231;-75
2021/08/28 01:24:28;;;;;;;42.88;29.85;;;;;;;8.50;100.00;98816.91;2087705;28;20676;-74
2021/08/28 01:25:56;;;;;;;38.85;29.08;;;;;;;8.52;100.00;98823.84;2087829;28;20219;-74
2021/08/28 01:27:15;;;;;;;42.28;28.42;;;;;;;8.48;100.00;98821.72;2087746;28;20223;-74
2021/08/28 01:28:17;;;;;;;40.33;29.55;;;;;;;8.45;100.00;98826.84;2088145;28;20231;-74
2021/08/28 01:29:21;;;;;;;33.88;27.63;;;;;;;8.43;100.00;98827.13;2079997;28;20231;-74
2021/08/28 01:30:22;;;;;;;37.38;28.52;;;;;;;8.40;100.00;98824.25;2079874;28;20250;-75
2021/08/28 01:31:25;;;;;;;39.75;29.35;;;;;;;8.36;100.00;98818.72;2088045;28;20710;-75
2021/08/28 01:32:26;;;;;;;41.28;29.08;;;;;;;8.35;100.00;98819.81;2080234;28;20726;-74
2021/08/28 01:33:28;;;;;;;39.78;28.50;;;;;;;8.33;100.00;98823.78;2088349;28;20294;-74
2021/08/28 01:34:31;;;;;;;35.78;27.75;;;;;;;8.30;100.00;98814.50;2080166;28;20220;-74
2021/08/28 01:35:33;;;;;;;34.85;28.58;;;;;;;8.26;100.00;98818.84;2088087;28;20218;-74
2021/08/28 01:36:35;;;;;;;33.15;27.27;;;;;;;8.25;100.00;98827.84;2080072;28;20223;-74
2021/08/28 01:37:51;;;;;;;33.97;28.27;;;;;;;8.23;100.00;98824.72;2081529;28;20219;-74
2021/08/28 01:39:15;;;;;;;33.65;27.40;;;;;;;8.22;100.00;98823.13;2087031;28;20572;-74
2021/08/28 01:40:18;;;;;;;41.67;28.33;;;;;;;8.18;100.00;98820.25;2088014;28;20663;-75
2021/08/28 01:41:30;;;;;;;35.28;27.77;;;;;;;8.20;100.00;98833.25;2080928;28;20280;-75
2021/08/28 01:42:36;;;;;;;34.20;27.48;;;;;;;8.18;100.00;98822.13;2087962;28;20227;-74
2021/08/28 01:43:39;;;;;;;35.15;28.05;;;;;;;8.19;100.00;98829.03;2079823;28;20234;-74
2021/08/28 01:44:45;;;;;;;39.38;28.83;;;;;;;8.17;100.00;98829.31;2079845;28;20269;-75
2021/08/28 01:45:46;;;;;;;38.20;28.30;;;;;;;8.15;100.00;98825.34;2088198;28;20620;-74
2021/08/28 01:46:48;;;;;;;43.00;29.05;;;;;;;8.15;100.00;98828.78;2088029;28;20546;-74
2021/08/28 01:47:51;;;;;;;54.45;32.72;;;;;;;8.13;100.00;98822.19;2088088;28;20226;-74
2021/08/28 01:48:53;;;;;;;60.38;33.63;;;;;;;8.17;100.00;98820.56;2079467;28;20365;-75
2021/08/28 01:49:57;;;;;;;55.60;32.83;;;;;;;8.18;100.00;98827.44;2080410;28;20284;-74
2021/08/28 01:51:00;;;;;;;52.17;33.72;;;;;;;8.14;100.00;98829.06;2079636;28;20226;-74
2021/08/28 01:52:06;;;;;;;52.17;33.25;;;;;;;8.13;100.00;98828.28;2087990;28;20218;-74
2021/08/28 01:53:10;;;;;;;49.88;32.28;;;;;;;8.11;100.00;98821.69;2079731;28;20227;-74
2021/08/28 01:54:10;;;;;;;50.25;33.92;;;;;;;8.10;100.00;98820.09;2087946;28;20223;-74
2021/08/28 01:55:12;;;;;;;61.33;33.70;;;;;;;8.10;100.00;98826.22;2087956;28;20725;-74
2021/08/28 01:56:27;;;;;;;52.78;32.90;;;;;;;8.13;100.00;98824.84;2087487;28;20261;-74
2021/08/28 01:57:29;;;;;;;48.97;32.75;;;;;;;8.10;100.00;98823.56;2079988;28;20254;-74
2021/08/28 01:58:57;;;;;;;51.53;32.45;;;;;;;8.07;100.00;98829.41;2079572;28;20702;-74
2021/08/28 02:00:19;;;;;;;58.38;33.42;;;;;;;8.06;100.00;98827.06;2088290;28;20219;-74
2021/08/28 02:01:21;;;;;;;53.63;34.25;;;;;;;8.03;100.00;98827.63;2087900;28;20218;-74
2021/08/28 02:02:22;;;;;;;51.28;33.60;;;;;;;8.04;100.00;98823.91;2079097;28;20224;-74
2021/08/28 02:03:29;;;;;;;47.50;32.33;;;;;;;8.03;100.00;98824.97;2087923;28;20230;-74
2021/08/28 02:04:29;;;;;;;54.65;33.00;;;;;;;8.03;100.00;98824.97;2079797;28;20697;-74
2021/08/28 02:05:33;;;;;;;45.87;31.80;;;;;;;8.01;100.00;98824.47;2088036;28;20222;-74
2021/08/28 02:06:45;;;;;;;47.72;33.22;;;;;;;8.03;100.00;98824.97;2080666;28;20461;-74
2021/08/28 02:07:51;;;;;;;47.90;32.17;;;;;;;7.99;100.00;98819.41;2088053;28;20280;-74
2021/08/28 02:08:55;;;;;;;49.83;32.95;;;;;;;7.99;100.00;98815.97;2087603;28;20582;-74
2021/08/28 02:10:02;;;;;;;44.00;32.33;;;;;;;7.99;100.00;98822.06;2080154;28;20227;-74
2021/08/28 02:11:09;;;;;;;51.00;31.85;;;;;;;8.00;100.00;98822.91;2080352;28;20219;-74
2021/08/28 02:12:15;;;;;;;42.47;30.50;;;;;;;8.02;100.00;98823.41;2079981;28;20230;-75
2021/08/28 02:13:22;;;;;;;40.90;30.42;;;;;;;7.99;100.00;98821.28;2080501;28;20226;-74
2021/08/28 02:14:28;;;;;;;46.88;30.98;;;;;;;7.99;100.00;98829.25;2079908;28;20251;-75
2021/08/28 02:15:34;;;;;;;44.63;31.15;;;;;;;7.96;100.00;98832.50;2080413;28;20254;-74
2021/08/28 02:16:37;;;;;;;49.58;31.60;;;;;;;7.93;100.00;98825.91;2087448;28;20222;-74
2021/08/28 02:17:43;;;;;;;40.58;30.20;;;;;;;7.89;100.00;98830.19;2079478;28;20263;-75
2021/08/28 02:18:49;;;;;;;49.90;32.70;;;;;;;7.87;100.00;98833.13;2080351;28;20686;-74
2021/08/28 02:20:11;;;;;;;44.30;29.42;;;;;;;7.82;100.00;98825.22;2087266;28;20226;-74
2021/08/28 02:21:27;;;;;;;42.05;30.23;;;;;;;7.79;100.00;98828.44;2087104;28;20226;-74
2021/08/28 02:22:32;;;;;;;36.50;29.55;;;;;;;7.76;100.00;98825.56;2079620;28;20717;-74
2021/08/28 02:24:00;;;;;;;40.40;29.63;;;;;;;7.71;100.00;98823.75;2087599;28;20222;-74
2021/08/28 02:25:07;;;;;;;42.97;30.25;;;;;;;7.69;100.00;98820.59;2087823;28;20788;-74
2021/08/28 02:26:14;;;;;;;43.28;29.98;;;;;;;7.67;100.00;98825.38;2079962;28;20230;-74
2021/08/28 02:27:22;;;;;;;41.58;29.80;;;;;;;7.66;100.00;98826.47;2080722;28;20264;-75
2021/08/28 02:28:28;;;;;;;44.35;29.45;;;;;;;7.65;100.00;98819.56;2080010;28;20580;-74
2021/08/28 02:29:34;;;;;;;33.85;28.48;;;;;;;7.65;100.00;98823.03;2080841;28;20344;-74
2021/08/28 02:30:38;;;;;;;41.47;29.48;;;;;;;7.67;100.00;98827.25;2080032;28;20238;-74
2021/08/28 02:31:48;;;;;;;42.72;29.27;;;;;;;7.68;100.00;98826.19;2080232;28;20259;-74
2021/08/28 02:32:52;;;;;;;41.90;28.63;;;;;;;7.68;100.00;98819.00;2080080;28;20616;-74
2021/08/28 02:33:54;;;;;;;38.03;28.60;;;;;;;7.70;100.00;98832.00;2087437;28;20214;-74
2021/08/28 02:34:58;;;;;;;46.88;30.88;;;;;;;7.70;100.00;98832.78;2079833;28;20231;-74
2021/08/28 02:35:59;;;;;;;41.85;29.70;;;;;;;7.74;100.00;98833.03;2079846;28;20720;-74
2021/08/28 02:37:01;;;;;;;36.58;28.92;;;;;;;7.75;100.00;98835.41;2087882;28;20333;-74
2021/08/28 02:38:03;;;;;;;36.50;28.13;;;;;;;7.75;100.00;98838.03;2079659;28;20281;-74
2021/08/28 02:39:04;;;;;;;39.35;29.83;;;;;;;7.78;100.00;98840.13;2088043;28;20268;-74
2021/08/28 02:40:09;;;;;;;46.10;30.30;;;;;;;7.78;100.00;98834.03;2087693;28;20341;-74
2021/08/28 02:41:11;;;;;;;46.50;29.05;;;;;;;7.77;100.00;98833.25;2087374;28;20242;-74
2021/08/28 02:42:13;;;;;;;43.80;30.00;;;;;;;7.78;100.00;98840.13;2079963;28;20220;-74
2021/08/28 02:43:16;;;;;;;38.65;29.63;;;;;;;7.78;100.00;98836.69;2079695;28;20565;-74
2021/08/28 02:44:19;;;;;;;38.22;28.65;;;;;;;7.75;100.00;98835.41;2079936;28;20226;-74
2021/08/28 02:45:23;;;;;;;37.88;28.92;;;;;;;7.77;100.00;98835.91;2087699;28;20243;-75
2021/08/28 02:46:35;;;;;;;42.28;29.13;;;;;;;7.77;100.00;98833.25;2080736;28;20618;-74
2021/08/28 02:47:43;;;;;;;37.15;27.30;;;;;;;7.79;100.00;98831.09;2080199;28;20259;-74
2021/08/28 02:48:46;;;;;;;36.92;28.55;;;;;;;7.81;100.00;98836.09;2079730;28;20264;-74
2021/08/28 02:49:47;;;;;;;40.47;28.50;;;;;;;7.82;100.00;98835.84;2087600;28;20605;-74
2021/08/28 02:51:10;;;;;;;36.00;28.58;;;;;;;7.85;100.00;98835.28;2087382;28;20301;-75
2021/08/28 02:52:14;;;;;;;36.33;28.15;;;;;;;7.87;100.00;98838.44;2087699;28;20226;-75
2021/08/28 02:53:18;;;;;;;39.42;27.88;;;;;;;7.87;100.00;98838.44;2079888;28;20219;-74
2021/08/28 02:54:20;;;;;;;33.92;28.30;;;;;;;7.85;100.00;98843.25;2079818;28;20263;-74
2021/08/28 02:55:22;;;;;;;38.67;28.98;;;;;;;7.83;100.00;98839.28;2079696;28;20277;-74
2021/08/28 02:56:24;;;;;;;37.83;28.80;;;;;;;7.82;100.00;98843.03;2079047;28;20227;-74
2021/08/28 02:57:28;;;;;;;41.97;29.27;;;;;;;7.78;100.00;98840.13;2087880;28;20231;-74
2021/08/28 02:58:28;;;;;;;40.42;28.90;;;;;;;7.74;100.00;98841.78;2087735;28;20301;-74
2021/08/28 02:59:31;;;;;;;43.33;29.40;;;;;;;7.69;100.00;98847.13;2079508;28;20218;-74
2021/08/28 03:00:33;;;;;;;36.08;27.70;;;;;;;7.68;100.00;98845.56;2079703;28;20603;-75
2021/08/28 03:01:36;;;;;;;41.40;28.03;;;;;;;7.68;100.00;98850.88;2079464;28;20227;-74
2021/08/28 03:02:37;;;;;;;33.72;27.00;;;;;;;7.63;100.00;98849.03;2079033;28;20223;-74
2021/08/28 03:03:39;;;;;;;31.13;26.83;;;;;;;7.58;100.00;98841.16;2079469;28;20300;-74
2021/08/28 03:04:41;;;;;;;31.70;27.38;;;;;;;7.57;100.00;98846.75;2088030;28;20408;-74
2021/08/28 03:05:46;;;;;;;31.90;26.77;;;;;;;7.54;100.00;98834.00;2079553;28;20749;-74
2021/08/28 03:06:47;;;;;;;31.60;26.27;;;;;;;7.52;100.00;98844.91;2079705;28;20224;-74
2021/08/28 03:07:49;;;;;;;30.60;26.63;;;;;;;7.52;100.00;98842.25;2079311;28;20307;-75
2021/08/28 03:08:51;;;;;;;31.05;26.60;;;;;;;7.54;100.00;98841.97;2079361;28;20230;-74
2021/08/28 03:09:54;;;;;;;28.43;25.53;;;;;;;7.56;100.00;98845.94;2087811;28;20258;-74
2021/08/28 03:10:55;;;;;;;29.73;26.58;;;;;;;7.55;100.00;98844.34;2087664;28;20587;-74
2021/08/28 03:11:58;;;;;;;31.13;27.45;;;;;;;7.58;100.00;98845.66;2079633;28;20330;-74
2021/08/28 03:12:59;;;;;;;29.17;25.30;;;;;;;7.59;100.00;98837.41;2087653;28;20562;-75
2021/08/28 03:14:01;;;;;;;30.70;26.63;;;;;;;7.59;100.00;98847.25;2087816;28;20281;-74
2021/08/28 03:15:04;;;;;;;33.85;26.98;;;;;;;7.60;100.00;98835.53;2087647;28;20323;-74
2021/08/28 03:16:08;;;;;;;30.83;26.80;;;;;;;7.59;100.00;98845.38;2079565;28;20662;-74
2021/08/28 03:17:11;;;;;;;30.80;26.55;;;;;;;7.60;100.00;98846.16;2087526;28;20368;-74
2021/08/28 03:18:19;;;;;;;31.95;25.83;;;;;;;7.60;100.00;98843.50;2080124;28;20709;-74
2021/08/28 03:19:23;;;;;;;33.83;26.60;;;;;;;7.58;100.00;98840.34;2080052;28;20224;-74
2021/08/28 03:20:26;;;;;;;32.15;26.58;;;;;;;7.58;100.00;98835.84;2087674;28;20770;-74
2021/08/28 03:21:29;;;;;;;32.15;26.70;;;;;;;7.59;100.00;98841.94;2087681;28;20231;-74
2021/08/28 03:22:32;;;;;;;30.35;26.55;;;;;;;7.58;100.00;98846.44;2087556;28;20701;-74
2021/08/28 03:23:34;;;;;;;33.67;26.65;;;;;;;7.58;100.00;98840.34;2079573;28;20219;-74
2021/08/28 03:24:36;;;;;;;32.45;26.02;;;;;;;7.55;100.00;98839.03;2079677;28;20221;-74
2021/08/28 03:25:42;;;;;;;32.30;26.73;;;;;;;7.55;100.00;98844.34;2079798;28;20626;-74
2021/08/28 03:26:44;;;;;;;35.53;28.05;;;;;;;7.54;100.00;98839.31;2079541;28;20219;-74
2021/08/28 03:27:46;;;;;;;30.80;26.85;;;;;;;7.53;100.00;98840.41;2079395;28;20223;-74
2021/08/28 03:28:48;;;;;;;30.83;25.05;;;;;;;7.53;100.00;98837.75;2079423;28;20589;-74
2021/08/28 03:29:49;;;;;;;32.20;26.48;;;;;;;7.54;100.00;98836.66;2087551;28;20323;-74
2021/08/28 03:30:51;;;;;;;28.50;25.27;;;;;;;7.51;100.00;98831.94;2079300;28;20219;-74
2021/08/28 03:31:52;;;;;;;35.00;27.25;;;;;;;7.51;100.00;98834.59;2079299;28;20307;-74
2021/08/28 03:32:56;;;;;;;29.35;26.08;;;;;;;7.51;100.00;98842.53;2087734;28;20661;-74
2021/08/28 03:33:58;;;;;;;31.00;26.17;;;;;;;7.52;100.00;98844.13;2089696;28;20296;-74
2021/08/28 03:35:00;;;;;;;29.75;26.58;;;;;;;7.51;100.00;98838.03;2089120;28;20636;-74
2021/08/28 03:36:04;;;;;;;29.45;26.27;;;;;;;7.52;100.00;98836.16;2089048;28;20274;-74
2021/08/28 03:37:07;;;;;;;32.00;26.83;;;;;;;7.55;100.00;98840.91;2088577;28;20559;-74
2021/08/28 03:38:08;;;;;;;32.60;26.70;;;;;;;7.57;100.00;98838.78;2080703;28;20374;-74
2021/08/28 03:39:09;;;;;;;34.25;26.98;;;;;;;7.58;100.00;98835.03;2080652;28;20223;-74
2021/08/28 03:40:12;;;;;;;31.10;27.70;;;;;;;7.59;100.00;98836.63;2080748;28;20223;-74
2021/08/28 03:41:14;;;;;;;30.02;26.83;;;;;;;7.68;100.00;98839.47;2089201;28;20226;-74
2021/08/28 03:42:16;;;;;;;31.10;27.23;;;;;;;7.67;100.00;98833.34;2080760;28;20306;-74
2021/08/28 03:43:16;;;;;;;30.70;27.17;;;;;;;7.64;100.00;98834.72;2088734;28;20238;-74
2021/08/28 03:44:19;;;;;;;30.63;26.40;;;;;;;7.62;100.00;98830.75;2080631;28;20246;-74
2021/08/28 03:45:20;;;;;;;31.15;26.52;;;;;;;7.60;100.00;98827.59;2080671;28;20270;-74
2021/08/28 03:46:22;;;;;;;31.83;26.17;;;;;;;7.61;100.00;98831.81;2088976;28;20218;-74
2021/08/28 03:47:23;;;;;;;31.00;26.17;;;;;;;7.59;100.00;98829.44;2080503;28;20312;-74
2021/08/28 03:48:26;;;;;;;33.70;26.90;;;;;;;7.59;100.00;98826.78;2080964;28;20223;-74
2021/08/28 03:49:27;;;;;;;28.42;25.38;;;;;;;7.58;100.00;98827.09;2088933;28;20253;-74
2021/08/28 03:50:29;;;;;;;29.30;26.03;;;;;;;7.59;100.00;98832.09;2088947;28;20229;-74
2021/08/28 03:51:35;;;;;;;31.05;25.55;;;;;;;7.61;100.00;98829.16;2081438;28;20247;-74
2021/08/28 03:52:36;;;;;;;29.17;25.67;;;;;;;7.63;100.00;98832.31;2080534;28;20230;-74
2021/08/28 03:53:38;;;;;;;29.30;26.23;;;;;;;7.63;100.00;98830.47;2080791;28;20237;-74
2021/08/28 03:54:39;;;;;;;33.63;27.25;;;;;;;7.62;100.00;98834.19;2081023;28;20235;-74
2021/08/28 03:55:40;;;;;;;36.23;27.40;;;;;;;7.62;100.00;98822.78;2088651;28;20229;-74
2021/08/28 03:56:41;;;;;;;34.67;27.80;;;;;;;7.64;100.00;98829.41;2089022;28;20234;-74
2021/08/28 03:57:42;;;;;;;34.37;27.00;;;;;;;7.64;100.00;98817.97;2089774;28;20231;-74
2021/08/28 03:58:43;;;;;;;34.47;27.65;;;;;;;7.69;100.00;98830.41;2088840;28;20227;-74
2021/08/28 03:59:45;;;;;;;34.43;27.43;;;;;;;7.71;100.00;98818.44;2080673;28;20666;-74
2021/08/28 04:00:51;;;;;;;34.47;27.60;;;;;;;7.71;100.00;98831.69;2081467;28;20223;-74
2021/08/28 04:01:53;;;;;;;36.27;28.40;;;;;;;7.71;100.00;98829.06;2080181;28;20239;-74
2021/08/28 04:03:11;;;;;;;36.60;27.17;;;;;;;7.74;100.00;98833.03;2082641;28;20693;-75
2021/08/28 04:04:15;;;;;;;35.55;26.85;;;;;;;7.74;100.00;98823.19;2080639;28;20219;-74
2021/08/28 04:05:16;;;;;;;40.08;27.40;;;;;;;7.74;100.00;98817.88;2088878;28;20711;-74
2021/08/28 04:06:17;;;;;;;31.43;25.73;;;;;;;7.76;100.00;98831.66;2088852;28;20583;-74
2021/08/28 04:07:19;;;;;;;34.35;26.85;;;;;;;7.77;100.00;98824.47;2080701;28;20227;-74
2021/08/28 04:08:21;;;;;;;33.73;27.50;;;;;;;7.77;100.00;98822.63;2088814;28;20677;-75
2021/08/28 04:09:26;;;;;;;34.50;26.80;;;;;;;7.78;100.00;98829.50;2080916;28;20691;-74
2021/08/28 04:10:28;;;;;;;32.67;26.37;;;;;;;7.76;100.00;98829.00;2088872;28;20299;-74
2021/08/28 04:11:29;;;;;;;30.33;26.00;;;;;;;7.78;100.00;98829.50;2088763;28;20696;-74
2021/08/28 04:12:30;;;;;;;29.40;26.20;;;;;;;7.80;100.00;98824.69;2080582;28;20610;-74
2021/08/28 04:13:35;;;;;;;29.27;25.35;;;;;;;7.80;100.00;98822.03;2081196;28;20231;-74
2021/08/28 04:14:37;;;;;;;28.20;25.17;;;;;;;7.80;100.00;98824.69;2080547;28;20226;-74
2021/08/28 04:15:37;;;;;;;30.30;25.05;;;;;;;7.80;100.00;98830.00;2080168;28;20230;-74
2021/08/28 04:16:50;;;;;;;26.83;24.02;;;;;;;7.80;100.00;98830.00;2081927;28;20748;-74
2021/08/28 04:17:51;;;;;;;28.63;25.38;;;;;;;7.79;100.00;98825.78;2088898;28;20239;-75
2021/08/28 04:18:52;;;;;;;28.83;25.43;;;;;;;7.79;100.00;98827.63;2088295;28;20219;-74
2021/08/28 04:20:17;;;;;;;28.92;25.23;;;;;;;7.78;100.00;98824.19;2083119;28;20670;-74
2021/08/28 04:21:17;;;;;;;28.40;25.50;;;;;;;7.80;100.00;98830.00;2080602;28;20269;-74
2021/08/28 04:22:22;;;;;;;27.50;24.60;;;;;;;7.80;100.00;98832.66;2080792;28;20219;-74
2021/08/28 04:23:46;;;;;;;30.15;25.48;;;;;;;7.82;100.00;98833.19;2087660;28;20227;-74
2021/08/28 04:25:09;;;;;;;28.38;24.90;;;;;;;7.83;100.00;98840.09;2063155;28;20224;-74
2021/08/28 04:26:29;;;;;;;27.95;24.60;;;;;;;7.83;100.00;98837.44;2088255;28;20662;-74
2021/08/28 04:27:30;;;;;;;31.30;25.85;;;;;;;7.86;100.00;98841.38;2089515;28;20610;-75
2021/08/28 04:28:32;;;;;;;32.80;26.33;;;;;;;7.86;100.00;98846.69;2088795;28;20233;-75
2021/08/28 04:29:33;;;;;;;37.20;26.33;;;;;;;7.87;100.00;98842.94;2080428;28;20222;-74
2021/08/28 04:30:36;;;;;;;31.10;25.73;;;;;;;7.87;100.00;98843.75;2088692;28;20222;-75
2021/08/28 04:31:38;;;;;;;29.48;25.52;;;;;;;7.86;100.00;98844.81;2088229;28;20229;-74
2021/08/28 04:32:40;;;;;;;28.93;25.33;;;;;;;7.86;100.00;98847.47;2080360;28;20262;-75
2021/08/28 04:33:41;;;;;;;34.38;26.67;;;;;;;7.85;100.00;98851.22;2080404;28;20334;-75
2021/08/28 04:34:43;;;;;;;32.67;25.65;;;;;;;7.85;100.00;98845.91;2080448;28;20299;-75
2021/08/28 04:35:46;;;;;;;36.53;26.42;;;;;;;7.87;100.00;98843.75;2080352;28;20223;-75
2021/08/28 04:36:47;;;;;;;43.95;27.73;;;;;;;7.87;100.00;98845.63;2080578;28;20303;-75
2021/08/28 04:37:49;;;;;;;36.57;26.73;;;;;;;7.88;100.00;98853.28;2088504;28;20214;-75
2021/08/28 04:38:50;;;;;;;32.85;26.90;;;;;;;7.88;100.00;98845.31;2080627;28;20246;-75
2021/08/28 04:39:52;;;;;;;30.80;26.37;;;;;;;7.90;100.00;98842.38;2080247;28;20226;-74
2021/08/28 04:40:53;;;;;;;31.55;26.67;;;;;;;7.90;100.00;98837.84;2088081;28;20738;-74
2021/08/28 04:41:57;;;;;;;29.77;26.25;;;;;;;7.95;100.00;98845.00;2080785;28;20688;-75
2021/08/28 04:42:59;;;;;;;34.00;27.50;;;;;;;7.99;100.00;98850.50;2080424;28;20607;-75
2021/08/28 04:44:14;;;;;;;29.80;26.45;;;;;;;8.00;100.00;98841.50;2081395;28;20219;-75
2021/08/28 04:45:21;;;;;;;27.75;24.58;;;;;;;8.04;100.00;98847.81;2081249;28;20211;-75
2021/08/28 04:46:54;;;;;;;31.70;26.23;;;;;;;8.01;100.00;98846.53;2083673;28;20230;-75
2021/08/28 04:47:55;;;;;;;27.98;24.65;;;;;;;8.03;100.00;98847.03;2088423;28;20230;-75
2021/08/28 04:48:58;;;;;;;31.45;25.30;;;;;;;8.04;100.00;98850.47;2088472;28;20234;-75
2021/08/28 04:50:10;;;;;;;27.52;24.58;;;;;;;8.04;100.00;98853.13;2081419;28;20261;-75
2021/08/28 04:51:15;;;;;;;27.98;24.90;;;;;;;8.06;100.00;98850.97;2088405;28;20228;-75
2021/08/28 04:52:16;;;;;;;29.65;25.27;;;;;;;8.05;100.00;98849.38;2080509;28;20223;-75
2021/08/28 04:53:18;;;;;;;27.37;24.47;;;;;;;8.07;100.00;98848.03;2080211;28;20254;-75
2021/08/28 04:54:19;;;;;;;29.73;24.88;;;;;;;8.08;100.00;98854.13;2080264;28;20215;-75
2021/08/28 04:55:24;;;;;;;27.45;24.60;;;;;;;8.09;100.00;98859.19;2080379;28;20223;-76
2021/08/28 04:56:26;;;;;;;27.50;24.65;;;;;;;8.11;100.00;98856.22;2088256;28;20262;-75
2021/08/28 04:57:28;;;;;;;27.70;24.70;;;;;;;8.12;100.00;98850.63;2080363;28;20318;-75